sensor_id;sensor_type;location;lat;lon;timestamp;pressure;altitude;pressure_sealevel;temperature;humidity
10518;BME280;5307;42.548;22.968;2023-09-18T00:01:54;94345.41;;;15.49;100.00
10518;BME280;5307;42.548;22.968;2023-09-18T00:04:21;94348.66;;;15.38;100.00
10518;BME280;5307;42.548;22.968;2023-09-18T00:06:49;94348.66;;;15.38;100.00
10518;BME280;5307;42.548;22.968;2023-09-18T00:09:16;94339.28;;;15.45;100.00
10518;BME280;5307;42.548;22.968;2023-09-18T00:11:44;94342.78;;;15.45;100.00
10518;BME280;5307;42.548;22.968;2023-09-18T00:14:11;94340.50;;;15.44;100.00
10518;BME280;5307;42.548;22.968;2023-09-18T00:16:37;94335.25;;;15.55;100.00
10518;BME280;5307;42.548;22.968;2023-09-18T00:19:05;94337.34;;;15.36;100.00
10518;BME280;5307;42.548;22.968;2023-09-18T00:21:33;94335.88;;;15.26;100.00
10518;BME280;5307;42.548;22.968;2023-09-18T00:24:00;94334.00;;;15.32;100.00
10518;BME280;5307;42.548;22.968;2023-09-18T00:26:26;94333.13;;;15.26;100.00
10518;BME280;5307;42.548;22.968;2023-09-18T00:28:55;94338.22;;;15.42;100.00
10518;BME280;5307;42.548;22.968;2023-09-18T00:31:21;94342.56;;;15.34;100.00
10518;BME280;5307;42.548;22.968;2023-09-18T00:33:48;94334.91;;;15.38;100.00
10518;BME280;5307;42.548;22.968;2023-09-18T00:36:15;94344.78;;;15.45;100.00
10518;BME280;5307;42.548;22.968;2023-09-18T00:38:42;94339.00;;;15.43;100.00
10518;BME280;5307;42.548;22.968;2023-09-18T00:41:09;94341.84;;;15.25;100.00
10518;BME280;5307;42.548;22.968;2023-09-18T00:43:36;94336.91;;;15.29;100.00
10518;BME280;5307;42.548;22.968;2023-09-18T00:46:05;94335.22;;;15.31;100.00
10518;BME280;5307;42.548;22.968;2023-09-18T00:48:32;94334.47;;;15.31;100.00
10518;BME280;5307;42.548;22.968;2023-09-18T00:51:00;94340.19;;;15.51;100.00
10518;BME280;5307;42.548;22.968;2023-09-18T00:53:28;94346.22;;;15.31;100.00
10518;BME280;5307;42.548;22.968;2023-09-18T00:55:57;94338.78;;;15.23;100.00
10518;BME280;5307;42.548;22.968;2023-09-18T00:58:26;94349.91;;;15.28;100.00
10518;BME280;5307;42.548;22.968;2023-09-18T01:00:53;94346.91;;;15.17;100.00
10518;BME280;5307;42.548;22.968;2023-09-18T01:03:22;94349.66;;;15.17;100.00
10518;BME280;5307;42.548;22.968;2023-09-18T01:05:50;94352.41;;;15.17;100.00
10518;BME280;5307;42.548;22.968;2023-09-18T01:08:17;94353.94;;;15.18;100.00
10518;BME280;5307;42.548;22.968;2023-09-18T01:10:48;94356.34;;;15.25;100.00
10518;BME280;5307;42.548;22.968;2023-09-18T01:13:23;94361.78;;;15.10;100.00
10518;BME280;5307;42.548;22.968;2023-09-18T01:15:59;94354.88;;;15.06;100.00
10518;BME280;5307;42.548;22.968;2023-09-18T01:18:30;94355.25;;;14.90;100.00
10518;BME280;5307;42.548;22.968;2023-09-18T01:20:57;94358.88;;;15.05;100.00
10518;BME280;5307;42.548;22.968;2023-09-18T01:23:25;94353.41;;;14.96;100.00
10518;BME280;5307;42.548;22.968;2023-09-18T01:25:52;94350.03;;;15.01;100.00
10518;BME280;5307;42.548;22.968;2023-09-18T01:28:20;94347.19;;;15.19;100.00
10518;BME280;5307;42.548;22.968;2023-09-18T01:30:47;94360.72;;;15.41;100.00
10518;BME280;5307;42.548;22.968;2023-09-18T01:33:14;94353.59;;;15.25;100.00
10518;BME280;5307;42.548;22.968;2023-09-18T01:35:41;94354.88;;;15.15;100.00
10518;BME280;5307;42.548;22.968;2023-09-18T01:38:08;94357.69;;;14.97;100.00
10518;BME280;5307;42.548;22.968;2023-09-18T01:40:38;94350.31;;;15.03;100.00
10518;BME280;5307;42.548;22.968;2023-09-18T01:43:05;94358.28;;;15.01;100.00
10518;BME280;5307;42.548;22.968;2023-09-18T01:45:32;94361.31;;;15.03;100.00
10518;BME280;5307;42.548;22.968;2023-09-18T01:47:59;94360.72;;;14.99;100.00
10518;BME280;5307;42.548;22.968;2023-09-18T01:50:26;94355.88;;;14.94;100.00
10518;BME280;5307;42.548;22.968;2023-09-18T01:52:53;94358.06;;;14.62;100.00
10518;BME280;5307;42.548;22.968;2023-09-18T01:55:20;94358.94;;;14.77;100.00
10518;BME280;5307;42.548;22.968;2023-09-18T01:57:48;94357.75;;;14.78;100.00
10518;BME280;5307;42.548;22.968;2023-09-18T02:00:15;94355.59;;;14.82;100.00
10518;BME280;5307;42.548;22.968;2023-09-18T02:02:43;94352.38;;;14.75;100.00
10518;BME280;5307;42.548;22.968;2023-09-18T02:05:10;94351.59;;;14.93;100.00
10518;BME280;5307;42.548;22.968;2023-09-18T02:07:37;94363.97;;;14.88;100.00
10518;BME280;5307;42.548;22.968;2023-09-18T02:10:04;94359.38;;;14.94;100.00
10518;BME280;5307;42.548;22.968;2023-09-18T02:12:32;94359.72;;;14.78;100.00
10518;BME280;5307;42.548;22.968;2023-09-18T02:15:00;94371.81;;;14.62;100.00
10518;BME280;5307;42.548;22.968;2023-09-18T02:17:31;94363.38;;;14.75;100.00
10518;BME280;5307;42.548;22.968;2023-09-18T02:19:58;94368.41;;;14.76;100.00
10518;BME280;5307;42.548;22.968;2023-09-18T02:22:26;94371.19;;;14.67;100.00
10518;BME280;5307;42.548;22.968;2023-09-18T02:24:52;94369.97;;;14.68;100.00
10518;BME280;5307;42.548;22.968;2023-09-18T02:27:19;94369.81;;;14.72;100.00
10518;BME280;5307;42.548;22.968;2023-09-18T02:29:46;94364.31;;;14.72;100.00
10518;BME280;5307;42.548;22.968;2023-09-18T02:32:16;94368.44;;;14.67;100.00
10518;BME280;5307;42.548;22.968;2023-09-18T02:34:44;94372.72;;;14.68;100.00
10518;BME280;5307;42.548;22.968;2023-09-18T02:37:10;94353.06;;;14.51;100.00
10518;BME280;5307;42.548;22.968;2023-09-18T02:39:38;94356.53;;;14.61;100.00
10518;BME280;5307;42.548;22.968;2023-09-18T02:42:05;94362.66;;;14.56;100.00
10518;BME280;5307;42.548;22.968;2023-09-18T02:44:32;94357.28;;;14.71;100.00
10518;BME280;5307;42.548;22.968;2023-09-18T02:46:58;94359.16;;;14.55;100.00
10518;BME280;5307;42.548;22.968;2023-09-18T02:49:27;94356.28;;;14.50;100.00
10518;BME280;5307;42.548;22.968;2023-09-18T02:51:55;94359.91;;;14.47;100.00
10518;BME280;5307;42.548;22.968;2023-09-18T02:54:22;94359.78;;;14.50;100.00
10518;BME280;5307;42.548;22.968;2023-09-18T02:56:48;94359.63;;;14.54;100.00
10518;BME280;5307;42.548;22.968;2023-09-18T02:59:17;94361.31;;;14.51;100.00
10518;BME280;5307;42.548;22.968;2023-09-18T03:01:44;94358.38;;;14.18;100.00
10518;BME280;5307;42.548;22.968;2023-09-18T03:04:11;94363.41;;;14.20;100.00
10518;BME280;5307;42.548;22.968;2023-09-18T03:06:39;94362.81;;;14.16;100.00
10518;BME280;5307;42.548;22.968;2023-09-18T03:09:12;94371.19;;;14.21;100.00
10518;BME280;5307;42.548;22.968;2023-09-18T03:11:39;94369.97;;;14.59;100.00
10518;BME280;5307;42.548;22.968;2023-09-18T03:14:06;94371.22;;;14.58;100.00
10518;BME280;5307;42.548;22.968;2023-09-18T03:16:33;94368.47;;;14.49;100.00
10518;BME280;5307;42.548;22.968;2023-09-18T03:19:00;94360.53;;;14.51;100.00
10518;BME280;5307;42.548;22.968;2023-09-18T03:21:26;94375.34;;;14.53;100.00
10518;BME280;5307;42.548;22.968;2023-09-18T03:23:55;94362.06;;;14.52;100.00
10518;BME280;5307;42.548;22.968;2023-09-18T03:26:23;94366.94;;;14.57;100.00
10518;BME280;5307;42.548;22.968;2023-09-18T03:28:50;94373.81;;;14.52;100.00
10518;BME280;5307;42.548;22.968;2023-09-18T03:31:16;94369.38;;;14.64;100.00
10518;BME280;5307;42.548;22.968;2023-09-18T03:33:43;94363.28;;;14.51;100.00
10518;BME280;5307;42.548;22.968;2023-09-18T03:36:10;94366.47;;;14.40;100.00
10518;BME280;5307;42.548;22.968;2023-09-18T03:38:37;94364.81;;;14.52;100.00
10518;BME280;5307;42.548;22.968;2023-09-18T03:41:05;94359.63;;;14.36;100.00
10518;BME280;5307;42.548;22.968;2023-09-18T03:43:32;94352.91;;;14.37;100.00
10518;BME280;5307;42.548;22.968;2023-09-18T03:46:03;94348.00;;;14.59;100.00
10518;BME280;5307;42.548;22.968;2023-09-18T03:48:30;94356.25;;;14.59;100.00
10518;BME280;5307;42.548;22.968;2023-09-18T03:51:01;94354.25;;;14.32;100.00
10518;BME280;5307;42.548;22.968;2023-09-18T03:53:28;94353.03;;;14.42;100.00
10518;BME280;5307;42.548;22.968;2023-09-18T03:55:55;94359.91;;;14.47;100.00
10518;BME280;5307;42.548;22.968;2023-09-18T03:58:23;94365.72;;;14.40;100.00
10518;BME280;5307;42.548;22.968;2023-09-18T04:00:50;94355.78;;;14.61;100.00
10518;BME280;5307;42.548;22.968;2023-09-18T04:03:17;94352.13;;;14.45;100.00
10518;BME280;5307;42.548;22.968;2023-09-18T04:05:44;94350.44;;;14.39;100.00
10518;BME280;5307;42.548;22.968;2023-09-18T04:08:11;94350.91;;;14.46;100.00
10518;BME280;5307;42.548;22.968;2023-09-18T04:10:38;94356.59;;;15.03;100.00
10518;BME280;5307;42.548;22.968;2023-09-18T04:13:05;94364.19;;;14.57;100.00
10518;BME280;5307;42.548;22.968;2023-09-18T04:15:33;94366.94;;;14.48;100.00
10518;BME280;5307;42.548;22.968;2023-09-18T04:18:03;94364.47;;;14.32;100.00
10518;BME280;5307;42.548;22.968;2023-09-18T04:20:30;94363.88;;;14.27;100.00
10518;BME280;5307;42.548;22.968;2023-09-18T04:23:20;94371.19;;;14.31;100.00
10518;BME280;5307;42.548;22.968;2023-09-18T04:25:47;94371.22;;;14.49;100.00
10518;BME280;5307;42.548;22.968;2023-09-18T04:28:14;94377.25;;;15.74;100.00
10518;BME280;5307;42.548;22.968;2023-09-18T04:30:42;94379.00;;;15.53;100.00
10518;BME280;5307;42.548;22.968;2023-09-18T04:33:09;94383.13;;;14.64;100.00
10518;BME280;5307;42.548;22.968;2023-09-18T04:35:37;94376.25;;;14.60;100.00
10518;BME280;5307;42.548;22.968;2023-09-18T04:38:06;94384.81;;;14.52;100.00
10518;BME280;5307;42.548;22.968;2023-09-18T04:40:33;94379.72;;;14.05;100.00
10518;BME280;5307;42.548;22.968;2023-09-18T04:43:00;94384.94;;;14.03;100.00
10518;BME280;5307;42.548;22.968;2023-09-18T04:45:29;94389.22;;;14.32;100.00
10518;BME280;5307;42.548;22.968;2023-09-18T04:47:57;94391.22;;;14.49;100.00
10518;BME280;5307;42.548;22.968;2023-09-18T04:50:24;94388.63;;;14.64;100.00
10518;BME280;5307;42.548;22.968;2023-09-18T04:52:52;94385.28;;;14.51;100.00
10518;BME280;5307;42.548;22.968;2023-09-18T04:55:19;94385.66;;;14.86;100.00
10518;BME280;5307;42.548;22.968;2023-09-18T04:57:46;94389.63;;;14.94;100.00
10518;BME280;5307;42.548;22.968;2023-09-18T05:00:14;94390.41;;;14.85;100.00
10518;BME280;5307;42.548;22.968;2023-09-18T05:02:44;94390.75;;;14.78;100.00
10518;BME280;5307;42.548;22.968;2023-09-18T05:05:12;94391.63;;;14.75;100.00
10518;BME280;5307;42.548;22.968;2023-09-18T05:07:39;94398.22;;;14.69;100.00
10518;BME280;5307;42.548;22.968;2023-09-18T05:10:06;94397.13;;;14.94;100.00
10518;BME280;5307;42.548;22.968;2023-09-18T05:12:33;94391.44;;;14.97;100.00
10518;BME280;5307;42.548;22.968;2023-09-18T05:15:03;94399.06;;;15.02;100.00
10518;BME280;5307;42.548;22.968;2023-09-18T05:17:40;94394.91;;;15.16;100.00
10518;BME280;5307;42.548;22.968;2023-09-18T05:20:15;94397.00;;;15.30;100.00
10518;BME280;5307;42.548;22.968;2023-09-18T05:22:42;94391.16;;;15.37;100.00
10518;BME280;5307;42.548;22.968;2023-09-18T05:25:09;94393.00;;;15.40;100.00
10518;BME280;5307;42.548;22.968;2023-09-18T05:27:37;94397.47;;;15.29;100.00
10518;BME280;5307;42.548;22.968;2023-09-18T05:30:10;94403.34;;;15.45;100.00
10518;BME280;5307;42.548;22.968;2023-09-18T05:32:37;94389.13;;;15.47;100.00
10518;BME280;5307;42.548;22.968;2023-09-18T05:35:05;94396.31;;;15.44;100.00
10518;BME280;5307;42.548;22.968;2023-09-18T05:37:36;94395.34;;;15.57;100.00
10518;BME280;5307;42.548;22.968;2023-09-18T05:40:06;94401.88;;;15.78;100.00
10518;BME280;5307;42.548;22.968;2023-09-18T05:42:34;94396.81;;;15.76;100.00
10518;BME280;5307;42.548;22.968;2023-09-18T05:45:01;94394.13;;;15.58;100.00
10518;BME280;5307;42.548;22.968;2023-09-18T05:47:29;94395.97;;;15.61;100.00
10518;BME280;5307;42.548;22.968;2023-09-18T05:49:56;94384.34;;;15.66;100.00
10518;BME280;5307;42.548;22.968;2023-09-18T05:52:23;94395.81;;;15.88;100.00
10518;BME280;5307;42.548;22.968;2023-09-18T05:54:52;94399.34;;;15.89;100.00
10518;BME280;5307;42.548;22.968;2023-09-18T05:57:18;94401.94;;;15.92;100.00
10518;BME280;5307;42.548;22.968;2023-09-18T05:59:45;94402.91;;;16.04;100.00
10518;BME280;5307;42.548;22.968;2023-09-18T06:02:12;94392.13;;;16.15;100.00
10518;BME280;5307;42.548;22.968;2023-09-18T06:04:39;94398.88;;;16.14;100.00
10518;BME280;5307;42.548;22.968;2023-09-18T06:07:06;94403.19;;;16.30;100.00
10518;BME280;5307;42.548;22.968;2023-09-18T06:09:33;94393.44;;;16.44;100.00
10518;BME280;5307;42.548;22.968;2023-09-18T06:12:01;94393.66;;;16.55;100.00
10518;BME280;5307;42.548;22.968;2023-09-18T06:14:30;94394.50;;;16.46;100.00
10518;BME280;5307;42.548;22.968;2023-09-18T06:16:57;94388.63;;;16.53;100.00
10518;BME280;5307;42.548;22.968;2023-09-18T06:19:23;94394.91;;;16.54;100.00
10518;BME280;5307;42.548;22.968;2023-09-18T06:21:53;94393.75;;;16.60;100.00
10518;BME280;5307;42.548;22.968;2023-09-18T06:24:20;94400.81;;;16.61;100.00
10518;BME280;5307;42.548;22.968;2023-09-18T06:26:46;94396.00;;;16.71;100.00
10518;BME280;5307;42.548;22.968;2023-09-18T06:29:15;94398.56;;;16.75;100.00
10518;BME280;5307;42.548;22.968;2023-09-18T06:31:41;94395.25;;;17.00;100.00
10518;BME280;5307;42.548;22.968;2023-09-18T06:34:08;94393.94;;;17.10;100.00
10518;BME280;5307;42.548;22.968;2023-09-18T06:36:35;94392.31;;;17.18;100.00
10518;BME280;5307;42.548;22.968;2023-09-18T06:39:02;94392.31;;;17.18;100.00
10518;BME280;5307;42.548;22.968;2023-09-18T06:41:29;94386.94;;;17.44;100.00
10518;BME280;5307;42.548;22.968;2023-09-18T06:43:56;94385.22;;;17.62;100.00
10518;BME280;5307;42.548;22.968;2023-09-18T06:46:25;94393.78;;;17.64;100.00
10518;BME280;5307;42.548;22.968;2023-09-18T06:48:51;94393.22;;;17.74;100.00
10518;BME280;5307;42.548;22.968;2023-09-18T06:51:18;94398.16;;;17.70;100.00
10518;BME280;5307;42.548;22.968;2023-09-18T06:53:45;94390.13;;;17.72;100.00
10518;BME280;5307;42.548;22.968;2023-09-18T06:56:18;94390.03;;;17.82;100.00
10518;BME280;5307;42.548;22.968;2023-09-18T06:58:44;94399.94;;;17.73;100.00
10518;BME280;5307;42.548;22.968;2023-09-18T07:01:13;94397.22;;;17.94;100.00
10518;BME280;5307;42.548;22.968;2023-09-18T07:03:42;94392.13;;;18.07;100.00
10518;BME280;5307;42.548;22.968;2023-09-18T07:06:08;94392.13;;;18.48;100.00
10518;BME280;5307;42.548;22.968;2023-09-18T07:08:35;94385.41;;;18.54;100.00
10518;BME280;5307;42.548;22.968;2023-09-18T07:11:02;94384.66;;;18.54;100.00
10518;BME280;5307;42.548;22.968;2023-09-18T07:13:28;94387.16;;;18.52;100.00
10518;BME280;5307;42.548;22.968;2023-09-18T07:15:55;94385.34;;;18.69;100.00
10518;BME280;5307;42.548;22.968;2023-09-18T07:18:22;94378.78;;;18.92;100.00
10518;BME280;5307;42.548;22.968;2023-09-18T07:20:50;94381.81;;;18.94;100.00
10518;BME280;5307;42.548;22.968;2023-09-18T07:23:17;94383.50;;;19.12;100.00
10518;BME280;5307;42.548;22.968;2023-09-18T07:25:44;94386.66;;;18.99;100.00
10518;BME280;5307;42.548;22.968;2023-09-18T07:28:10;94386.34;;;19.18;100.00
10518;BME280;5307;42.548;22.968;2023-09-18T07:30:43;94377.31;;;19.23;100.00
10518;BME280;5307;42.548;22.968;2023-09-18T07:33:11;94379.16;;;19.32;100.00
10518;BME280;5307;42.548;22.968;2023-09-18T07:35:38;94388.66;;;18.99;100.00
10518;BME280;5307;42.548;22.968;2023-09-18T07:38:08;94386.94;;;19.02;100.00
10518;BME280;5307;42.548;22.968;2023-09-18T07:40:34;94387.63;;;18.96;100.00
10518;BME280;5307;42.548;22.968;2023-09-18T07:43:01;94393.81;;;18.86;100.00
10518;BME280;5307;42.548;22.968;2023-09-18T07:45:28;94391.22;;;19.03;100.00
10518;BME280;5307;42.548;22.968;2023-09-18T07:47:55;94383.06;;;19.19;100.00
10518;BME280;5307;42.548;22.968;2023-09-18T07:50:22;94388.66;;;19.25;100.00
10518;BME280;5307;42.548;22.968;2023-09-18T07:52:48;94394.50;;;19.59;99.89
10518;BME280;5307;42.548;22.968;2023-09-18T07:55:16;94389.56;;;19.74;100.00
10518;BME280;5307;42.548;22.968;2023-09-18T07:57:43;94388.16;;;19.90;96.35
10518;BME280;5307;42.548;22.968;2023-09-18T08:00:12;94389.81;;;19.76;95.38
10518;BME280;5307;42.548;22.968;2023-09-18T08:02:41;94393.00;;;19.63;95.28
10518;BME280;5307;42.548;22.968;2023-09-18T08:05:08;94393.44;;;19.24;96.12
10518;BME280;5307;42.548;22.968;2023-09-18T08:07:35;94392.00;;;20.03;96.62
10518;BME280;5307;42.548;22.968;2023-09-18T08:10:02;94381.91;;;20.54;92.53
10518;BME280;5307;42.548;22.968;2023-09-18T08:12:35;94386.06;;;21.09;87.65
10518;BME280;5307;42.548;22.968;2023-09-18T08:15:02;94373.00;;;21.38;84.79
10518;BME280;5307;42.548;22.968;2023-09-18T08:19:59;94370.13;;;20.82;84.09
10518;BME280;5307;42.548;22.968;2023-09-18T08:22:25;94380.41;;;20.59;83.79
10518;BME280;5307;42.548;22.968;2023-09-18T08:24:52;94368.47;;;21.40;84.40
10518;BME280;5307;42.548;22.968;2023-09-18T08:27:58;94363.41;;;21.27;81.32
10518;BME280;5307;42.548;22.968;2023-09-18T08:30:25;94363.31;;;21.94;79.56
10518;BME280;5307;42.548;22.968;2023-09-18T08:32:52;94352.03;;;21.59;77.59
10518;BME280;5307;42.548;22.968;2023-09-18T08:35:19;94358.53;;;21.11;78.47
10518;BME280;5307;42.548;22.968;2023-09-18T08:37:47;94363.41;;;21.55;79.30
10518;BME280;5307;42.548;22.968;2023-09-18T08:40:14;94351.00;;;21.51;79.01
10518;BME280;5307;42.548;22.968;2023-09-18T08:42:45;94349.16;;;22.04;78.08
10518;BME280;5307;42.548;22.968;2023-09-18T08:45:16;94358.41;;;22.40;74.86
10518;BME280;5307;42.548;22.968;2023-09-18T08:47:45;94352.44;;;22.08;75.29
10518;BME280;5307;42.548;22.968;2023-09-18T08:50:14;94338.81;;;21.87;75.07
10518;BME280;5307;42.548;22.968;2023-09-18T08:52:41;94352.41;;;22.19;74.03
10518;BME280;5307;42.548;22.968;2023-09-18T08:55:09;94351.03;;;23.00;75.92
10518;BME280;5307;42.548;22.968;2023-09-18T08:57:36;94338.78;;;23.15;72.92
10518;BME280;5307;42.548;22.968;2023-09-18T09:00:05;94334.16;;;22.87;73.12
10518;BME280;5307;42.548;22.968;2023-09-18T09:02:35;94331.44;;;23.12;72.30
10518;BME280;5307;42.548;22.968;2023-09-18T09:05:02;94333.94;;;22.74;70.98
10518;BME280;5307;42.548;22.968;2023-09-18T09:07:29;94332.44;;;23.14;72.51
10518;BME280;5307;42.548;22.968;2023-09-18T09:09:56;94332.50;;;23.38;70.06
10518;BME280;5307;42.548;22.968;2023-09-18T09:12:48;94334.34;;;23.60;70.66
10518;BME280;5307;42.548;22.968;2023-09-18T09:15:15;94321.41;;;23.87;67.55
10518;BME280;5307;42.548;22.968;2023-09-18T09:17:43;94321.41;;;23.63;68.28
10518;BME280;5307;42.548;22.968;2023-09-18T09:20:12;94320.09;;;23.94;66.77
10518;BME280;5307;42.548;22.968;2023-09-18T09:22:39;94315.94;;;24.25;66.91
10518;BME280;5307;42.548;22.968;2023-09-18T09:25:21;94318.44;;;23.25;69.66
10518;BME280;5307;42.548;22.968;2023-09-18T09:27:48;94313.34;;;23.84;67.90
10518;BME280;5307;42.548;22.968;2023-09-18T09:30:19;94313.56;;;23.86;69.11
10518;BME280;5307;42.548;22.968;2023-09-18T09:32:49;94306.94;;;24.13;68.01
10518;BME280;5307;42.548;22.968;2023-09-18T09:35:21;94303.91;;;24.36;67.50
10518;BME280;5307;42.548;22.968;2023-09-18T09:37:50;94304.88;;;24.57;67.81
10518;BME280;5307;42.548;22.968;2023-09-18T09:40:19;94300.81;;;24.58;66.43
10518;BME280;5307;42.548;22.968;2023-09-18T09:42:47;94294.47;;;24.39;66.95
10518;BME280;5307;42.548;22.968;2023-09-18T09:45:15;94298.66;;;24.26;67.38
10518;BME280;5307;42.548;22.968;2023-09-18T09:47:43;94295.34;;;25.03;65.98
10518;BME280;5307;42.548;22.968;2023-09-18T09:50:12;94288.41;;;24.35;66.44
10518;BME280;5307;42.548;22.968;2023-09-18T09:52:42;94282.97;;;24.61;65.74
10518;BME280;5307;42.548;22.968;2023-09-18T09:55:23;94280.81;;;24.35;63.73
10518;BME280;5307;42.548;22.968;2023-09-18T09:57:52;94280.19;;;23.99;66.23
10518;BME280;5307;42.548;22.968;2023-09-18T10:00:20;94279.66;;;25.00;64.57
10518;BME280;5307;42.548;22.968;2023-09-18T10:02:58;94277.81;;;24.27;65.07
10518;BME280;5307;42.548;22.968;2023-09-18T10:05:29;94274.88;;;24.20;65.25
10518;BME280;5307;42.548;22.968;2023-09-18T10:07:59;94264.56;;;24.71;63.18
10518;BME280;5307;42.548;22.968;2023-09-18T10:10:31;94268.38;;;25.38;64.48
10518;BME280;5307;42.548;22.968;2023-09-18T10:13:02;94254.84;;;24.59;63.28
10518;BME280;5307;42.548;22.968;2023-09-18T10:15:34;94260.09;;;25.45;62.52
10518;BME280;5307;42.548;22.968;2023-09-18T10:18:05;94261.44;;;24.94;60.45
10518;BME280;5307;42.548;22.968;2023-09-18T10:20:39;94246.72;;;25.25;63.41
10518;BME280;5307;42.548;22.968;2023-09-18T10:23:18;94244.31;;;26.01;60.81
10518;BME280;5307;42.548;22.968;2023-09-18T10:25:51;94233.34;;;24.54;62.03
10518;BME280;5307;42.548;22.968;2023-09-18T10:28:23;94239.66;;;25.05;62.37
10518;BME280;5307;42.548;22.968;2023-09-18T10:30:52;94228.09;;;25.14;60.88
10518;BME280;5307;42.548;22.968;2023-09-18T10:33:19;94223.94;;;25.34;61.69
10518;BME280;5307;42.548;22.968;2023-09-18T10:35:48;94222.28;;;25.71;60.67
10518;BME280;5307;42.548;22.968;2023-09-18T10:38:16;94222.53;;;24.64;62.39
10518;BME280;5307;42.548;22.968;2023-09-18T10:40:46;94224.00;;;24.83;63.63
10518;BME280;5307;42.548;22.968;2023-09-18T10:43:15;94213.72;;;25.24;60.23
10518;BME280;5307;42.548;22.968;2023-09-18T10:45:44;94212.47;;;25.64;61.89
10518;BME280;5307;42.548;22.968;2023-09-18T10:48:11;94215.03;;;25.04;61.12
10518;BME280;5307;42.548;22.968;2023-09-18T10:50:40;94206.06;;;25.11;59.98
10518;BME280;5307;42.548;22.968;2023-09-18T10:53:10;94197.94;;;25.53;61.30
10518;BME280;5307;42.548;22.968;2023-09-18T10:55:37;94200.75;;;25.79;60.97
10518;BME280;5307;42.548;22.968;2023-09-18T10:58:04;94199.22;;;26.52;59.99
10518;BME280;5307;42.548;22.968;2023-09-18T11:00:32;94198.31;;;26.23;60.89
10518;BME280;5307;42.548;22.968;2023-09-18T11:03:13;94195.53;;;26.23;57.76
10518;BME280;5307;42.548;22.968;2023-09-18T11:05:41;94193.13;;;26.40;58.91
10518;BME280;5307;42.548;22.968;2023-09-18T11:08:30;94182.09;;;26.55;57.45
10518;BME280;5307;42.548;22.968;2023-09-18T11:11:00;94176.00;;;26.65;56.78
10518;BME280;5307;42.548;22.968;2023-09-18T11:13:35;94183.41;;;26.41;56.51
10518;BME280;5307;42.548;22.968;2023-09-18T11:16:14;94178.78;;;26.44;54.37
10518;BME280;5307;42.548;22.968;2023-09-18T11:18:40;94183.69;;;25.11;54.85
10518;BME280;5307;42.548;22.968;2023-09-18T11:21:08;94174.03;;;25.38;55.99
10518;BME280;5307;42.548;22.968;2023-09-18T11:23:38;94178.75;;;24.85;56.47
10518;BME280;5307;42.548;22.968;2023-09-18T11:26:08;94178.66;;;24.91;56.15
10518;BME280;5307;42.548;22.968;2023-09-18T11:28:37;94174.25;;;25.67;55.45
10518;BME280;5307;42.548;22.968;2023-09-18T11:31:04;94170.38;;;25.43;56.72
10518;BME280;5307;42.548;22.968;2023-09-18T11:33:35;94177.97;;;24.71;57.19
10518;BME280;5307;42.548;22.968;2023-09-18T11:36:05;94174.94;;;24.69;57.83
10518;BME280;5307;42.548;22.968;2023-09-18T11:38:33;94169.09;;;24.16;59.08
10518;BME280;5307;42.548;22.968;2023-09-18T11:41:22;94166.53;;;24.56;58.44
10518;BME280;5307;42.548;22.968;2023-09-18T11:43:50;94167.31;;;24.70;60.55
10518;BME280;5307;42.548;22.968;2023-09-18T11:46:18;94163.50;;;24.54;59.08
10518;BME280;5307;42.548;22.968;2023-09-18T11:48:47;94165.03;;;24.17;57.79
10518;BME280;5307;42.548;22.968;2023-09-18T11:51:21;94169.56;;;24.02;59.20
10518;BME280;5307;42.548;22.968;2023-09-18T11:53:52;94162.72;;;24.40;58.46
10518;BME280;5307;42.548;22.968;2023-09-18T11:56:21;94162.66;;;24.59;57.64
10518;BME280;5307;42.548;22.968;2023-09-18T11:58:49;94160.44;;;24.71;57.72
10518;BME280;5307;42.548;22.968;2023-09-18T12:01:18;94144.88;;;25.07;57.45
10518;BME280;5307;42.548;22.968;2023-09-18T12:03:45;94157.34;;;24.74;57.09
10518;BME280;5307;42.548;22.968;2023-09-18T12:06:13;94155.00;;;24.78;53.00
10518;BME280;5307;42.548;22.968;2023-09-18T12:08:41;94154.81;;;24.57;53.62
10518;BME280;5307;42.548;22.968;2023-09-18T12:11:08;94142.47;;;24.34;54.28
10518;BME280;5307;42.548;22.968;2023-09-18T12:13:37;94147.38;;;24.47;54.55
10518;BME280;5307;42.548;22.968;2023-09-18T12:16:04;94141.94;;;24.54;52.94
10518;BME280;5307;42.548;22.968;2023-09-18T12:18:31;94135.41;;;24.65;54.82
10518;BME280;5307;42.548;22.968;2023-09-18T12:21:02;94134.41;;;24.63;58.96
10518;BME280;5307;42.548;22.968;2023-09-18T12:23:37;94138.44;;;24.48;56.98
10518;BME280;5307;42.548;22.968;2023-09-18T12:26:04;94137.16;;;24.36;56.53
10518;BME280;5307;42.548;22.968;2023-09-18T12:28:33;94130.22;;;24.56;55.30
10518;BME280;5307;42.548;22.968;2023-09-18T12:31:02;94131.25;;;24.85;57.49
10518;BME280;5307;42.548;22.968;2023-09-18T12:33:33;94116.88;;;24.94;55.81
10518;BME280;5307;42.548;22.968;2023-09-18T12:36:01;94130.91;;;25.21;57.01
10518;BME280;5307;42.548;22.968;2023-09-18T12:38:28;94114.03;;;25.13;54.10
10518;BME280;5307;42.548;22.968;2023-09-18T12:40:55;94116.78;;;25.00;53.71
10518;BME280;5307;42.548;22.968;2023-09-18T12:43:33;94119.13;;;24.82;53.63
10518;BME280;5307;42.548;22.968;2023-09-18T12:46:02;94107.53;;;25.05;54.27
10518;BME280;5307;42.548;22.968;2023-09-18T12:48:30;94105.63;;;25.26;55.13
10518;BME280;5307;42.548;22.968;2023-09-18T12:51:02;94109.31;;;25.21;54.94
10518;BME280;5307;42.548;22.968;2023-09-18T12:53:30;94100.91;;;25.34;53.59
10518;BME280;5307;42.548;22.968;2023-09-18T12:56:05;94105.00;;;25.20;52.02
10518;BME280;5307;42.548;22.968;2023-09-18T12:58:32;94101.97;;;25.18;51.91
10518;BME280;5307;42.548;22.968;2023-09-18T13:01:05;94094.25;;;25.11;55.11
10518;BME280;5307;42.548;22.968;2023-09-18T13:03:36;94094.44;;;25.26;52.57
10518;BME280;5307;42.548;22.968;2023-09-18T13:06:09;94091.53;;;25.19;52.35